sensor_id;sensor_type;location;lat;lon;timestamp;P1;durP1;ratioP1;P2;durP2;ratioP2
41966;SDS011;27656;53.068;8.818;2022-11-18T00:01:03;14.47;;;9.13;;
41966;SDS011;27656;53.068;8.818;2022-11-18T00:03:34;18.23;;;9.80;;
41966;SDS011;27656;53.068;8.818;2022-11-18T00:06:01;18.57;;;10.43;;
41966;SDS011;27656;53.068;8.818;2022-11-18T00:08:27;15.90;;;10.27;;
41966;SDS011;27656;53.068;8.818;2022-11-18T00:10:54;14.40;;;8.87;;
41966;SDS011;27656;53.068;8.818;2022-11-18T00:13:20;17.20;;;9.87;;
41966;SDS011;27656;53.068;8.818;2022-11-18T00:16:09;15.03;;;9.13;;
41966;SDS011;27656;53.068;8.818;2022-11-18T00:18:37;16.83;;;10.47;;
41966;SDS011;27656;53.068;8.818;2022-11-18T00:21:08;15.03;;;8.97;;
41966;SDS011;27656;53.068;8.818;2022-11-18T00:23:35;15.73;;;9.00;;
41966;SDS011;27656;53.068;8.818;2022-11-18T00:28:33;15.60;;;9.07;;
41966;SDS011;27656;53.068;8.818;2022-11-18T00:31:02;18.93;;;10.30;;
41966;SDS011;27656;53.068;8.818;2022-11-18T00:33:30;15.13;;;9.40;;
41966;SDS011;27656;53.068;8.818;2022-11-18T00:35:57;16.23;;;9.73;;
41966;SDS011;27656;53.068;8.818;2022-11-18T00:38:24;16.23;;;9.77;;
41966;SDS011;27656;53.068;8.818;2022-11-18T00:41:00;16.17;;;9.90;;
41966;SDS011;27656;53.068;8.818;2022-11-18T00:43:34;17.07;;;10.20;;
41966;SDS011;27656;53.068;8.818;2022-11-18T00:46:01;18.50;;;9.40;;
41966;SDS011;27656;53.068;8.818;2022-11-18T00:48:28;15.20;;;9.50;;
41966;SDS011;27656;53.068;8.818;2022-11-18T00:50:56;16.60;;;10.13;;
41966;SDS011;27656;53.068;8.818;2022-11-18T00:53:24;15.63;;;9.23;;
41966;SDS011;27656;53.068;8.818;2022-11-18T00:55:52;16.20;;;9.90;;
41966;SDS011;27656;53.068;8.818;2022-11-18T00:58:19;15.67;;;9.23;;
41966;SDS011;27656;53.068;8.818;2022-11-18T01:00:48;16.33;;;8.97;;
41966;SDS011;27656;53.068;8.818;2022-11-18T01:03:16;19.00;;;10.10;;
41966;SDS011;27656;53.068;8.818;2022-11-18T01:05:43;17.23;;;10.20;;
41966;SDS011;27656;53.068;8.818;2022-11-18T01:08:10;17.20;;;10.00;;
41966;SDS011;27656;53.068;8.818;2022-11-18T01:10:38;16.63;;;9.80;;
41966;SDS011;27656;53.068;8.818;2022-11-18T01:13:05;19.60;;;10.53;;
41966;SDS011;27656;53.068;8.818;2022-11-18T01:15:46;16.40;;;10.17;;
41966;SDS011;27656;53.068;8.818;2022-11-18T01:18:12;18.07;;;10.53;;
41966;SDS011;27656;53.068;8.818;2022-11-18T01:20:39;18.67;;;10.53;;
41966;SDS011;27656;53.068;8.818;2022-11-18T01:23:06;16.30;;;9.83;;
41966;SDS011;27656;53.068;8.818;2022-11-18T01:25:33;16.27;;;9.30;;
41966;SDS011;27656;53.068;8.818;2022-11-18T01:28:01;14.40;;;8.67;;
41966;SDS011;27656;53.068;8.818;2022-11-18T01:30:28;18.23;;;10.63;;
41966;SDS011;27656;53.068;8.818;2022-11-18T01:32:54;16.03;;;10.07;;
41966;SDS011;27656;53.068;8.818;2022-11-18T01:35:21;18.30;;;10.80;;
41966;SDS011;27656;53.068;8.818;2022-11-18T01:37:47;16.50;;;9.53;;
41966;SDS011;27656;53.068;8.818;2022-11-18T01:40:14;16.87;;;9.23;;
41966;SDS011;27656;53.068;8.818;2022-11-18T01:42:40;20.23;;;9.77;;
41966;SDS011;27656;53.068;8.818;2022-11-18T01:47:59;15.93;;;9.70;;
41966;SDS011;27656;53.068;8.818;2022-11-18T01:50:30;16.60;;;8.77;;
41966;SDS011;27656;53.068;8.818;2022-11-18T01:52:59;14.43;;;9.10;;
41966;SDS011;27656;53.068;8.818;2022-11-18T01:55:29;13.93;;;8.73;;
41966;SDS011;27656;53.068;8.818;2022-11-18T01:58:04;19.70;;;9.73;;
41966;SDS011;27656;53.068;8.818;2022-11-18T02:00:36;14.97;;;8.90;;
41966;SDS011;27656;53.068;8.818;2022-11-18T02:03:03;13.97;;;7.90;;
41966;SDS011;27656;53.068;8.818;2022-11-18T02:05:29;12.73;;;7.40;;
41966;SDS011;27656;53.068;8.818;2022-11-18T02:07:56;13.13;;;7.80;;
41966;SDS011;27656;53.068;8.818;2022-11-18T02:10:23;11.47;;;7.70;;
41966;SDS011;27656;53.068;8.818;2022-11-18T02:12:53;16.73;;;8.60;;
41966;SDS011;27656;53.068;8.818;2022-11-18T02:15:23;16.20;;;8.60;;
41966;SDS011;27656;53.068;8.818;2022-11-18T02:18:03;13.17;;;8.23;;
41966;SDS011;27656;53.068;8.818;2022-11-18T02:20:38;13.57;;;7.60;;
41966;SDS011;27656;53.068;8.818;2022-11-18T02:23:16;9.97;;;6.50;;
41966;SDS011;27656;53.068;8.818;2022-11-18T02:31:19;14.20;;;7.70;;
41966;SDS011;27656;53.068;8.818;2022-11-18T02:33:50;10.07;;;6.30;;
41966;SDS011;27656;53.068;8.818;2022-11-18T02:36:27;9.70;;;6.30;;
41966;SDS011;27656;53.068;8.818;2022-11-18T02:39:01;10.63;;;6.67;;
41966;SDS011;27656;53.068;8.818;2022-11-18T02:41:30;10.33;;;6.33;;
41966;SDS011;27656;53.068;8.818;2022-11-18T02:44:01;9.53;;;5.93;;
41966;SDS011;27656;53.068;8.818;2022-11-18T02:46:31;10.17;;;5.80;;
41966;SDS011;27656;53.068;8.818;2022-11-18T02:48:59;9.23;;;5.43;;
41966;SDS011;27656;53.068;8.818;2022-11-18T02:51:29;9.03;;;5.77;;
41966;SDS011;27656;53.068;8.818;2022-11-18T02:53:59;9.27;;;6.17;;
41966;SDS011;27656;53.068;8.818;2022-11-18T02:56:27;10.23;;;5.63;;
41966;SDS011;27656;53.068;8.818;2022-11-18T02:58:54;10.37;;;6.27;;
41966;SDS011;27656;53.068;8.818;2022-11-18T03:01:28;11.27;;;6.10;;
41966;SDS011;27656;53.068;8.818;2022-11-18T03:03:56;9.63;;;6.23;;
41966;SDS011;27656;53.068;8.818;2022-11-18T03:22:22;10.23;;;6.20;;
41966;SDS011;27656;53.068;8.818;2022-11-18T03:25:04;10.13;;;5.83;;
41966;SDS011;27656;53.068;8.818;2022-11-18T03:30:30;13.13;;;7.30;;
41966;SDS011;27656;53.068;8.818;2022-11-18T03:33:01;10.77;;;7.00;;
41966;SDS011;27656;53.068;8.818;2022-11-18T03:35:31;10.80;;;7.00;;
41966;SDS011;27656;53.068;8.818;2022-11-18T03:38:01;12.97;;;7.30;;
41966;SDS011;27656;53.068;8.818;2022-11-18T03:40:34;12.20;;;6.93;;
41966;SDS011;27656;53.068;8.818;2022-11-18T03:43:05;10.33;;;6.77;;
41966;SDS011;27656;53.068;8.818;2022-11-18T03:45:36;15.57;;;7.77;;
41966;SDS011;27656;53.068;8.818;2022-11-18T03:50:37;11.60;;;7.70;;
41966;SDS011;27656;53.068;8.818;2022-11-18T03:53:05;14.40;;;8.13;;
41966;SDS011;27656;53.068;8.818;2022-11-18T03:55:34;15.73;;;8.60;;
41966;SDS011;27656;53.068;8.818;2022-11-18T03:58:15;13.67;;;8.00;;
41966;SDS011;27656;53.068;8.818;2022-11-18T04:00:47;15.03;;;8.90;;
41966;SDS011;27656;53.068;8.818;2022-11-18T04:03:16;15.43;;;8.77;;
41966;SDS011;27656;53.068;8.818;2022-11-18T04:05:43;16.17;;;9.77;;
41966;SDS011;27656;53.068;8.818;2022-11-18T04:08:10;16.73;;;9.10;;
41966;SDS011;27656;53.068;8.818;2022-11-18T04:10:51;17.77;;;9.93;;
41966;SDS011;27656;53.068;8.818;2022-11-18T04:15:53;16.80;;;9.63;;
41966;SDS011;27656;53.068;8.818;2022-11-18T04:18:20;19.37;;;10.80;;
41966;SDS011;27656;53.068;8.818;2022-11-18T04:20:47;20.03;;;10.70;;
41966;SDS011;27656;53.068;8.818;2022-11-18T04:23:13;19.53;;;10.70;;
41966;SDS011;27656;53.068;8.818;2022-11-18T04:25:40;19.33;;;10.67;;
41966;SDS011;27656;53.068;8.818;2022-11-18T04:28:06;21.87;;;11.00;;
41966;SDS011;27656;53.068;8.818;2022-11-18T04:30:32;16.77;;;9.93;;
41966;SDS011;27656;53.068;8.818;2022-11-18T04:32:59;17.50;;;9.93;;
41966;SDS011;27656;53.068;8.818;2022-11-18T04:35:26;18.53;;;10.23;;
41966;SDS011;27656;53.068;8.818;2022-11-18T04:37:53;17.93;;;10.00;;
41966;SDS011;27656;53.068;8.818;2022-11-18T04:40:19;19.83;;;10.33;;
41966;SDS011;27656;53.068;8.818;2022-11-18T04:42:46;18.40;;;10.70;;
41966;SDS011;27656;53.068;8.818;2022-11-18T04:45:12;23.63;;;10.53;;
41966;SDS011;27656;53.068;8.818;2022-11-18T04:47:38;20.23;;;11.40;;
41966;SDS011;27656;53.068;8.818;2022-11-18T04:50:05;21.90;;;11.13;;
41966;SDS011;27656;53.068;8.818;2022-11-18T04:52:32;21.03;;;11.73;;
41966;SDS011;27656;53.068;8.818;2022-11-18T04:54:58;19.47;;;10.73;;
41966;SDS011;27656;53.068;8.818;2022-11-18T04:57:25;17.83;;;9.93;;
41966;SDS011;27656;53.068;8.818;2022-11-18T04:59:51;19.27;;;10.87;;
41966;SDS011;27656;53.068;8.818;2022-11-18T05:02:18;16.57;;;9.70;;
41966;SDS011;27656;53.068;8.818;2022-11-18T05:04:44;19.50;;;11.10;;
41966;SDS011;27656;53.068;8.818;2022-11-18T05:07:12;23.03;;;10.60;;
41966;SDS011;27656;53.068;8.818;2022-11-18T05:09:40;21.30;;;11.90;;
41966;SDS011;27656;53.068;8.818;2022-11-18T05:12:11;21.93;;;11.30;;
41966;SDS011;27656;53.068;8.818;2022-11-18T05:14:56;21.83;;;11.27;;
41966;SDS011;27656;53.068;8.818;2022-11-18T05:17:23;19.23;;;10.73;;
41966;SDS011;27656;53.068;8.818;2022-11-18T05:19:50;25.30;;;11.53;;
41966;SDS011;27656;53.068;8.818;2022-11-18T05:22:16;19.73;;;11.20;;
41966;SDS011;27656;53.068;8.818;2022-11-18T05:24:43;22.00;;;11.73;;
41966;SDS011;27656;53.068;8.818;2022-11-18T05:27:10;21.90;;;12.57;;
41966;SDS011;27656;53.068;8.818;2022-11-18T05:29:37;24.13;;;12.13;;
41966;SDS011;27656;53.068;8.818;2022-11-18T05:32:03;22.30;;;12.07;;
41966;SDS011;27656;53.068;8.818;2022-11-18T05:34:30;20.70;;;11.77;;
41966;SDS011;27656;53.068;8.818;2022-11-18T05:36:57;23.00;;;12.00;;
41966;SDS011;27656;53.068;8.818;2022-11-18T05:39:23;22.97;;;12.73;;
41966;SDS011;27656;53.068;8.818;2022-11-18T05:41:49;25.83;;;13.17;;
41966;SDS011;27656;53.068;8.818;2022-11-18T05:44:35;22.27;;;11.97;;
41966;SDS011;27656;53.068;8.818;2022-11-18T05:47:02;24.03;;;12.77;;
41966;SDS011;27656;53.068;8.818;2022-11-18T05:49:30;25.50;;;12.43;;
41966;SDS011;27656;53.068;8.818;2022-11-18T05:51:57;22.63;;;11.90;;
41966;SDS011;27656;53.068;8.818;2022-11-18T05:54:23;21.73;;;11.80;;
41966;SDS011;27656;53.068;8.818;2022-11-18T05:56:50;20.47;;;11.87;;
41966;SDS011;27656;53.068;8.818;2022-11-18T05:59:17;21.70;;;11.97;;
41966;SDS011;27656;53.068;8.818;2022-11-18T06:01:51;25.73;;;12.23;;
41966;SDS011;27656;53.068;8.818;2022-11-18T06:04:24;24.77;;;12.13;;
41966;SDS011;27656;53.068;8.818;2022-11-18T06:06:56;21.27;;;11.80;;
41966;SDS011;27656;53.068;8.818;2022-11-18T06:09:25;24.13;;;12.30;;
41966;SDS011;27656;53.068;8.818;2022-11-18T06:11:54;20.27;;;12.10;;
41966;SDS011;27656;53.068;8.818;2022-11-18T06:14:27;22.60;;;12.20;;
41966;SDS011;27656;53.068;8.818;2022-11-18T06:16:57;25.63;;;13.43;;
41966;SDS011;27656;53.068;8.818;2022-11-18T06:19:25;22.73;;;12.70;;
41966;SDS011;27656;53.068;8.818;2022-11-18T06:21:52;23.70;;;12.30;;
41966;SDS011;27656;53.068;8.818;2022-11-18T06:24:20;24.67;;;12.90;;
41966;SDS011;27656;53.068;8.818;2022-11-18T06:26:47;25.07;;;12.80;;
41966;SDS011;27656;53.068;8.818;2022-11-18T06:29:14;26.90;;;14.03;;
41966;SDS011;27656;53.068;8.818;2022-11-18T06:31:46;25.07;;;13.57;;
41966;SDS011;27656;53.068;8.818;2022-11-18T06:34:13;25.43;;;13.83;;
41966;SDS011;27656;53.068;8.818;2022-11-18T06:36:40;23.63;;;12.67;;
41966;SDS011;27656;53.068;8.818;2022-11-18T06:39:06;25.07;;;13.77;;
41966;SDS011;27656;53.068;8.818;2022-11-18T06:41:33;22.33;;;12.20;;
41966;SDS011;27656;53.068;8.818;2022-11-18T06:43:59;25.90;;;13.67;;
41966;SDS011;27656;53.068;8.818;2022-11-18T06:46:26;21.97;;;12.60;;
41966;SDS011;27656;53.068;8.818;2022-11-18T06:49:12;22.53;;;11.93;;
41966;SDS011;27656;53.068;8.818;2022-11-18T06:51:38;23.13;;;13.10;;
41966;SDS011;27656;53.068;8.818;2022-11-18T06:54:05;20.10;;;11.10;;
41966;SDS011;27656;53.068;8.818;2022-11-18T06:56:36;20.57;;;12.03;;
41966;SDS011;27656;53.068;8.818;2022-11-18T06:59:03;21.30;;;11.67;;
41966;SDS011;27656;53.068;8.818;2022-11-18T07:01:32;24.03;;;12.27;;
41966;SDS011;27656;53.068;8.818;2022-11-18T07:04:00;21.53;;;11.13;;
41966;SDS011;27656;53.068;8.818;2022-11-18T07:06:27;22.50;;;12.27;;
41966;SDS011;27656;53.068;8.818;2022-11-18T07:08:55;21.03;;;12.07;;
41966;SDS011;27656;53.068;8.818;2022-11-18T07:11:23;22.43;;;12.03;;
41966;SDS011;27656;53.068;8.818;2022-11-18T07:13:51;23.10;;;13.50;;
41966;SDS011;27656;53.068;8.818;2022-11-18T07:16:18;25.13;;;12.50;;
41966;SDS011;27656;53.068;8.818;2022-11-18T07:18:47;24.53;;;13.30;;
41966;SDS011;27656;53.068;8.818;2022-11-18T07:21:24;24.13;;;13.00;;
41966;SDS011;27656;53.068;8.818;2022-11-18T07:23:52;28.43;;;13.23;;
41966;SDS011;27656;53.068;8.818;2022-11-18T07:26:19;23.77;;;13.17;;
41966;SDS011;27656;53.068;8.818;2022-11-18T07:28:47;25.77;;;13.87;;
41966;SDS011;27656;53.068;8.818;2022-11-18T07:31:18;24.90;;;13.93;;
41966;SDS011;27656;53.068;8.818;2022-11-18T07:33:46;21.93;;;12.63;;
41966;SDS011;27656;53.068;8.818;2022-11-18T07:36:15;25.97;;;13.17;;
41966;SDS011;27656;53.068;8.818;2022-11-18T07:38:44;22.90;;;12.93;;
41966;SDS011;27656;53.068;8.818;2022-11-18T07:41:13;25.30;;;13.27;;
41966;SDS011;27656;53.068;8.818;2022-11-18T07:43:43;23.93;;;13.63;;
41966;SDS011;27656;53.068;8.818;2022-11-18T07:48:44;26.00;;;14.33;;
41966;SDS011;27656;53.068;8.818;2022-11-18T07:51:14;27.23;;;14.47;;
41966;SDS011;27656;53.068;8.818;2022-11-18T07:53:43;23.73;;;14.23;;
41966;SDS011;27656;53.068;8.818;2022-11-18T07:56:12;29.17;;;15.47;;
41966;SDS011;27656;53.068;8.818;2022-11-18T07:58:41;25.10;;;14.07;;
41966;SDS011;27656;53.068;8.818;2022-11-18T08:01:19;26.47;;;14.73;;
41966;SDS011;27656;53.068;8.818;2022-11-18T08:03:47;27.03;;;14.67;;
41966;SDS011;27656;53.068;8.818;2022-11-18T08:06:14;28.23;;;15.10;;
41966;SDS011;27656;53.068;8.818;2022-11-18T08:08:43;27.77;;;13.93;;
41966;SDS011;27656;53.068;8.818;2022-11-18T08:11:11;28.17;;;14.90;;
41966;SDS011;27656;53.068;8.818;2022-11-18T08:13:46;27.27;;;14.67;;
41966;SDS011;27656;53.068;8.818;2022-11-18T08:16:14;31.90;;;16.27;;
41966;SDS011;27656;53.068;8.818;2022-11-18T08:18:45;24.97;;;15.03;;
41966;SDS011;27656;53.068;8.818;2022-11-18T08:21:12;28.13;;;15.13;;
41966;SDS011;27656;53.068;8.818;2022-11-18T08:23:39;26.83;;;15.07;;
41966;SDS011;27656;53.068;8.818;2022-11-18T08:26:11;28.70;;;15.97;;
41966;SDS011;27656;53.068;8.818;2022-11-18T08:28:41;29.20;;;15.33;;
41966;SDS011;27656;53.068;8.818;2022-11-18T08:31:12;30.97;;;15.80;;
41966;SDS011;27656;53.068;8.818;2022-11-18T08:33:40;27.40;;;14.77;;
41966;SDS011;27656;53.068;8.818;2022-11-18T08:36:07;29.73;;;16.63;;
41966;SDS011;27656;53.068;8.818;2022-11-18T08:38:35;30.50;;;17.17;;
41966;SDS011;27656;53.068;8.818;2022-11-18T08:41:01;31.67;;;15.87;;
41966;SDS011;27656;53.068;8.818;2022-11-18T08:43:30;32.10;;;16.90;;
41966;SDS011;27656;53.068;8.818;2022-11-18T08:45:56;30.17;;;17.27;;
41966;SDS011;27656;53.068;8.818;2022-11-18T08:48:23;32.67;;;16.63;;
41966;SDS011;27656;53.068;8.818;2022-11-18T08:50:51;32.73;;;17.03;;
41966;SDS011;27656;53.068;8.818;2022-11-18T08:53:18;31.67;;;16.60;;
41966;SDS011;27656;53.068;8.818;2022-11-18T08:55:46;35.37;;;17.40;;
41966;SDS011;27656;53.068;8.818;2022-11-18T08:58:24;32.53;;;17.77;;
41966;SDS011;27656;53.068;8.818;2022-11-18T09:00:52;30.13;;;16.30;;
41966;SDS011;27656;53.068;8.818;2022-11-18T09:03:20;32.37;;;18.30;;
41966;SDS011;27656;53.068;8.818;2022-11-18T09:05:46;34.07;;;18.37;;
41966;SDS011;27656;53.068;8.818;2022-11-18T09:08:13;34.77;;;17.73;;
41966;SDS011;27656;53.068;8.818;2022-11-18T09:10:42;32.73;;;18.23;;
41966;SDS011;27656;53.068;8.818;2022-11-18T09:13:09;35.73;;;18.97;;
41966;SDS011;27656;53.068;8.818;2022-11-18T09:15:59;37.93;;;18.87;;
41966;SDS011;27656;53.068;8.818;2022-11-18T09:18:26;38.13;;;18.50;;
41966;SDS011;27656;53.068;8.818;2022-11-18T09:20:54;34.67;;;19.13;;
41966;SDS011;27656;53.068;8.818;2022-11-18T09:23:21;39.60;;;20.97;;
41966;SDS011;27656;53.068;8.818;2022-11-18T09:25:48;40.07;;;20.37;;
41966;SDS011;27656;53.068;8.818;2022-11-18T09:28:15;42.40;;;21.03;;
41966;SDS011;27656;53.068;8.818;2022-11-18T09:30:42;38.60;;;20.30;;
41966;SDS011;27656;53.068;8.818;2022-11-18T09:33:08;38.67;;;20.20;;
41966;SDS011;27656;53.068;8.818;2022-11-18T09:35:35;40.27;;;20.00;;
41966;SDS011;27656;53.068;8.818;2022-11-18T09:38:07;43.60;;;20.93;;
41966;SDS011;27656;53.068;8.818;2022-11-18T09:40:35;42.23;;;22.57;;
41966;SDS011;27656;53.068;8.818;2022-11-18T09:46:15;39.43;;;20.63;;
41966;SDS011;27656;53.068;8.818;2022-11-18T09:48:48;41.77;;;22.10;;
41966;SDS011;27656;53.068;8.818;2022-11-18T09:51:35;39.60;;;21.80;;
41966;SDS011;27656;53.068;8.818;2022-11-18T09:54:06;41.93;;;21.03;;
41966;SDS011;27656;53.068;8.818;2022-11-18T09:56:35;39.30;;;19.93;;
41966;SDS011;27656;53.068;8.818;2022-11-18T09:59:02;36.63;;;20.23;;
41966;SDS011;27656;53.068;8.818;2022-11-18T10:01:29;37.00;;;20.30;;
41966;SDS011;27656;53.068;8.818;2022-11-18T10:03:56;33.90;;;18.60;;
41966;SDS011;27656;53.068;8.818;2022-11-18T10:06:23;36.23;;;18.77;;
41966;SDS011;27656;53.068;8.818;2022-11-18T10:11:34;37.57;;;20.93;;
41966;SDS011;27656;53.068;8.818;2022-11-18T10:17:08;35.20;;;19.53;;
41966;SDS011;27656;53.068;8.818;2022-11-18T10:20:15;33.70;;;18.97;;
41966;SDS011;27656;53.068;8.818;2022-11-18T10:25:20;35.30;;;20.50;;
41966;SDS011;27656;53.068;8.818;2022-11-18T10:27:47;37.77;;;19.03;;
41966;SDS011;27656;53.068;8.818;2022-11-18T10:30:24;35.43;;;19.30;;
41966;SDS011;27656;53.068;8.818;2022-11-18T10:33:01;33.67;;;18.47;;
41966;SDS011;27656;53.068;8.818;2022-11-18T10:47:14;30.43;;;18.47;;
41966;SDS011;27656;53.068;8.818;2022-11-18T10:49:43;29.13;;;16.53;;
41966;SDS011;27656;53.068;8.818;2022-11-18T10:52:12;29.37;;;16.67;;
41966;SDS011;27656;53.068;8.818;2022-11-18T10:54:42;29.93;;;16.67;;
41966;SDS011;27656;53.068;8.818;2022-11-18T10:59:49;29.60;;;16.33;;
41966;SDS011;27656;53.068;8.818;2022-11-18T11:04:49;24.77;;;14.80;;
41966;SDS011;27656;53.068;8.818;2022-11-18T11:12:31;26.40;;;14.70;;
41966;SDS011;27656;53.068;8.818;2022-11-18T11:15:01;25.83;;;15.80;;
41966;SDS011;27656;53.068;8.818;2022-11-18T11:17:30;27.80;;;15.90;;
41966;SDS011;27656;53.068;8.818;2022-11-18T11:22:46;28.00;;;15.70;;
41966;SDS011;27656;53.068;8.818;2022-11-18T11:27:44;25.77;;;15.53;;
41966;SDS011;27656;53.068;8.818;2022-11-18T11:30:35;26.37;;;15.17;;
41966;SDS011;27656;53.068;8.818;2022-11-18T11:33:18;26.33;;;15.70;;
41966;SDS011;27656;53.068;8.818;2022-11-18T11:35:54;25.80;;;15.87;;
41966;SDS011;27656;53.068;8.818;2022-11-18T11:41:29;23.87;;;14.33;;
41966;SDS011;27656;53.068;8.818;2022-11-18T11:47:06;25.20;;;14.73;;
41966;SDS011;27656;53.068;8.818;2022-11-18T11:55:20;23.80;;;14.00;;
41966;SDS011;27656;53.068;8.818;2022-11-18T12:00:35;20.07;;;13.20;;
41966;SDS011;27656;53.068;8.818;2022-11-18T12:03:09;21.63;;;13.93;;
41966;SDS011;27656;53.068;8.818;2022-11-18T12:05:45;22.57;;;14.20;;
41966;SDS011;27656;53.068;8.818;2022-11-18T12:08:16;21.63;;;13.80;;
41966;SDS011;27656;53.068;8.818;2022-11-18T12:18:59;22.63;;;14.03;;
41966;SDS011;27656;53.068;8.818;2022-11-18T12:26:46;23.23;;;14.20;;
41966;SDS011;27656;53.068;8.818;2022-11-18T12:29:21;22.70;;;14.00;;
41966;SDS011;27656;53.068;8.818;2022-11-18T12:31:52;24.33;;;13.67;;
41966;SDS011;27656;53.068;8.818;2022-11-18T12:36:53;24.37;;;13.87;;
41966;SDS011;27656;53.068;8.818;2022-11-18T12:41:56;25.70;;;14.47;;
41966;SDS011;27656;53.068;8.818;2022-11-18T12:44:46;25.03;;;15.20;;
41966;SDS011;27656;53.068;8.818;2022-11-18T12:47:14;25.73;;;15.57;;
41966;SDS011;27656;53.068;8.818;2022-11-18T12:50:10;30.23;;;15.17;;
41966;SDS011;27656;53.068;8.818;2022-11-18T12:55:20;29.10;;;17.20;;
41966;SDS011;27656;53.068;8.818;2022-11-18T12:57:48;30.30;;;17.30;;
41966;SDS011;27656;53.068;8.818;2022-11-18T13:00:26;33.73;;;18.53;;
41966;SDS011;27656;53.068;8.818;2022-11-18T13:02:56;27.83;;;17.23;;
41966;SDS011;27656;53.068;8.818;2022-11-18T13:05:28;35.23;;;19.07;;
41966;SDS011;27656;53.068;8.818;2022-11-18T13:07:57;33.53;;;18.07;;
41966;SDS011;27656;53.068;8.818;2022-11-18T13:10:54;29.93;;;17.57;;
41966;SDS011;27656;53.068;8.818;2022-11-18T13:13:42;29.90;;;17.73;;
41966;SDS011;27656;53.068;8.818;2022-11-18T13:16:24;34.03;;;19.97;;
41966;SDS011;27656;53.068;8.818;2022-11-18T13:19:19;31.17;;;17.63;;
41966;SDS011;27656;53.068;8.818;2022-11-18T13:21:51;32.80;;;19.40;;
41966;SDS011;27656;53.068;8.818;2022-11-18T13:24:44;31.70;;;17.77;;
41966;SDS011;27656;53.068;8.818;2022-11-18T13:27:18;30.07;;;17.67;;
41966;SDS011;27656;53.068;8.818;2022-11-18T13:29:50;28.10;;;17.23;;
41966;SDS011;27656;53.068;8.818;2022-11-18T13:32:25;30.93;;;17.80;;
41966;SDS011;27656;53.068;8.818;2022-11-18T13:34:54;29.17;;;17.50;;
41966;SDS011;27656;53.068;8.818;2022-11-18T13:37:23;27.57;;;17.37;;
41966;SDS011;27656;53.068;8.818;2022-11-18T13:39:51;28.00;;;17.03;;
41966;SDS011;27656;53.068;8.818;2022-11-18T13:42:19;29.03;;;16.93;;
41966;SDS011;27656;53.068;8.818;2022-11-18T13:44:51;27.23;;;16.10;;
41966;SDS011;27656;53.068;8.818;2022-11-18T13:47:23;30.23;;;18.23;;
41966;SDS011;27656;53.068;8.818;2022-11-18T13:52:41;28.43;;;16.90;;
41966;SDS011;27656;53.068;8.818;2022-11-18T13:57:51;28.83;;;16.90;;
41966;SDS011;27656;53.068;8.818;2022-11-18T14:00:22;29.57;;;17.83;;
41966;SDS011;27656;53.068;8.818;2022-11-18T14:02:53;27.60;;;17.23;;
41966;SDS011;27656;53.068;8.818;2022-11-18T14:05:22;27.90;;;16.83;;
41966;SDS011;27656;53.068;8.818;2022-11-18T14:08:02;30.10;;;17.93;;
41966;SDS011;27656;53.068;8.818;2022-11-18T14:10:32;30.97;;;17.67;;
41966;SDS011;27656;53.068;8.818;2022-11-18T14:15:53;28.37;;;17.63;;
41966;SDS011;27656;53.068;8.818;2022-11-18T14:20:58;29.30;;;17.97;;
41966;SDS011;27656;53.068;8.818;2022-11-18T14:23:29;29.47;;;17.40;;
41966;SDS011;27656;53.068;8.818;2022-11-18T14:25:57;30.77;;;17.40;;
41966;SDS011;27656;53.068;8.818;2022-11-18T14:28:26;31.17;;;18.13;;
41966;SDS011;27656;53.068;8.818;2022-11-18T14:31:21;27.17;;;17.23;;
41966;SDS011;27656;53.068;8.818;2022-11-18T14:34:05;31.50;;;18.50;;
41966;SDS011;27656;53.068;8.818;2022-11-18T14:36:41;34.87;;;19.13;;
41966;SDS011;27656;53.068;8.818;2022-11-18T14:39:12;33.80;;;19.23;;
41966;SDS011;27656;53.068;8.818;2022-11-18T14:41:52;31.77;;;18.87;;
41966;SDS011;27656;53.068;8.818;2022-11-18T14:44:21;35.00;;;19.43;;
41966;SDS011;27656;53.068;8.818;2022-11-18T14:46:59;31.47;;;19.17;;
41966;SDS011;27656;53.068;8.818;2022-11-18T14:49:27;34.30;;;19.73;;
41966;SDS011;27656;53.068;8.818;2022-11-18T14:51:57;31.07;;;19.07;;
41966;SDS011;27656;53.068;8.818;2022-11-18T14:54:27;31.60;;;18.80;;
41966;SDS011;27656;53.068;8.818;2022-11-18T14:56:56;33.03;;;17.87;;
41966;SDS011;27656;53.068;8.818;2022-11-18T14:59:25;32.03;;;18.67;;
41966;SDS011;27656;53.068;8.818;2022-11-18T15:01:52;30.60;;;17.57;;
41966;SDS011;27656;53.068;8.818;2022-11-18T15:04:18;28.77;;;17.93;;
41966;SDS011;27656;53.068;8.818;2022-11-18T15:06:47;28.53;;;17.57;;
41966;SDS011;27656;53.068;8.818;2022-11-18T15:09:13;27.90;;;17.03;;
41966;SDS011;27656;53.068;8.818;2022-11-18T15:11:40;29.57;;;17.77;;
41966;SDS011;27656;53.068;8.818;2022-11-18T15:14:06;31.00;;;17.07;;
41966;SDS011;27656;53.068;8.818;2022-11-18T15:16:33;29.80;;;17.80;;
41966;SDS011;27656;53.068;8.818;2022-11-18T15:19:01;30.63;;;17.50;;
41966;SDS011;27656;53.068;8.818;2022-11-18T15:21:28;29.47;;;18.13;;
41966;SDS011;27656;53.068;8.818;2022-11-18T15:23:55;27.07;;;16.07;;
41966;SDS011;27656;53.068;8.818;2022-11-18T15:26:22;31.93;;;17.53;;
41966;SDS011;27656;53.068;8.818;2022-11-18T15:28:54;26.90;;;16.27;;
41966;SDS011;27656;53.068;8.818;2022-11-18T15:31:22;27.60;;;16.40;;
41966;SDS011;27656;53.068;8.818;2022-11-18T15:33:49;25.07;;;15.87;;
41966;SDS011;27656;53.068;8.818;2022-11-18T15:36:20;29.20;;;16.47;;
41966;SDS011;27656;53.068;8.818;2022-11-18T15:38:48;28.63;;;16.73;;
41966;SDS011;27656;53.068;8.818;2022-11-18T15:41:16;24.70;;;15.67;;
41966;SDS011;27656;53.068;8.818;2022-11-18T15:43:48;22.80;;;13.80;;
41966;SDS011;27656;53.068;8.818;2022-11-18T15:46:15;24.27;;;14.17;;
41966;SDS011;27656;53.068;8.818;2022-11-18T15:48:44;23.30;;;14.80;;
41966;SDS011;27656;53.068;8.818;2022-11-18T15:51:12;24.73;;;14.67;;
41966;SDS011;27656;53.068;8.818;2022-11-18T15:53:38;24.77;;;15.07;;
41966;SDS011;27656;53.068;8.818;2022-11-18T15:58:44;21.90;;;14.20;;
41966;SDS011;27656;53.068;8.818;2022-11-18T16:01:11;22.97;;;14.27;;
41966;SDS011;27656;53.068;8.818;2022-11-18T16:03:37;22.60;;;14.00;;
41966;SDS011;27656;53.068;8.818;2022-11-18T16:06:04;23.93;;;14.07;;
41966;SDS011;27656;53.068;8.818;2022-11-18T16:08:30;24.37;;;14.37;;
41966;SDS011;27656;53.068;8.818;2022-11-18T16:10:57;22.23;;;13.50;;
41966;SDS011;27656;53.068;8.818;2022-11-18T16:13:42;21.83;;;13.47;;
41966;SDS011;27656;53.068;8.818;2022-11-18T16:16:21;20.63;;;13.27;;
41966;SDS011;27656;53.068;8.818;2022-11-18T16:18:53;22.40;;;12.20;;
41966;SDS011;27656;53.068;8.818;2022-11-18T16:21:21;20.13;;;11.63;;
41966;SDS011;27656;53.068;8.818;2022-11-18T16:23:47;19.77;;;12.63;;
41966;SDS011;27656;53.068;8.818;2022-11-18T16:26:14;20.90;;;11.00;;
41966;SDS011;27656;53.068;8.818;2022-11-18T16:28:42;17.30;;;11.00;;
41966;SDS011;27656;53.068;8.818;2022-11-18T16:31:09;18.40;;;10.90;;
41966;SDS011;27656;53.068;8.818;2022-11-18T16:33:54;16.53;;;10.00;;
41966;SDS011;27656;53.068;8.818;2022-11-18T16:36:27;16.63;;;10.33;;
41966;SDS011;27656;53.068;8.818;2022-11-18T16:38:54;15.17;;;8.43;;
41966;SDS011;27656;53.068;8.818;2022-11-18T16:41:20;12.83;;;8.47;;
41966;SDS011;27656;53.068;8.818;2022-11-18T16:43:56;14.87;;;8.60;;
41966;SDS011;27656;53.068;8.818;2022-11-18T16:46:29;14.23;;;8.73;;
41966;SDS011;27656;53.068;8.818;2022-11-18T16:48:56;13.40;;;8.27;;